Time;durP1;ratioP1;P1;durP2;ratioP2;P2;SDS_P1;SDS_P2;PMS_P1;PMS_P2;Temp;Humidity;BMP_temperature;BMP_pressure;BME280_temperature;BME280_humidity;BME280_pressure;Samples;Min_cycle;Max_cycle;Signal;HPM_P1;HPM_P2
2023/05/20 00:00:32;;;;;;;16.13;9.23;;;;;;;;;;4955570;28;20043;-82
2023/05/20 00:02:59;;;;;;;16.98;9.50;;;;;;;;;;4957396;28;20074;-82
2023/05/20 00:05:26;;;;;;;16.77;10.18;;;;;;;;;;4956714;28;20043;-82
2023/05/20 00:07:53;;;;;;;19.95;10.43;;;;;;;;;;4955967;28;20399;-82
2023/05/20 00:10:22;;;;;;;23.10;10.55;;;;;;;;;;4925186;28;20465;-82
2023/05/20 00:12:48;;;;;;;19.52;10.02;;;;;;;;;;4939128;28;20054;-80
2023/05/20 00:15:15;;;;;;;17.63;9.80;;;;;;;;;;4939110;28;20385;-80
2023/05/20 00:17:41;;;;;;;17.70;10.68;;;;;;;;;;4922003;28;20051;-81
2023/05/20 00:20:08;;;;;;;24.23;10.85;;;;;;;;;;4953021;28;20035;-81
2023/05/20 00:22:35;;;;;;;24.20;11.05;;;;;;;;;;4936428;28;20047;-81
2023/05/20 00:25:01;;;;;;;20.55;10.95;;;;;;;;;;4954821;28;20055;-81
2023/05/20 00:27:28;;;;;;;21.13;10.82;;;;;;;;;;4970653;28;20106;-82
2023/05/20 00:29:55;;;;;;;19.73;10.85;;;;;;;;;;4967365;28;20043;-81
2023/05/20 00:32:21;;;;;;;23.08;11.52;;;;;;;;;;4955847;28;20058;-81
2023/05/20 00:34:55;;;;;;;22.58;10.88;;;;;;;;;;4971529;28;20062;-82
2023/05/20 00:37:22;;;;;;;18.65;10.75;;;;;;;;;;4972160;28;20052;-82
2023/05/20 00:39:49;;;;;;;24.67;11.52;;;;;;;;;;4957169;28;20114;-80
2023/05/20 00:42:22;;;;;;;20.08;11.35;;;;;;;;;;4956519;28;20131;-80
2023/05/20 00:44:52;;;;;;;20.25;11.20;;;;;;;;;;4970368;28;20074;-79
2023/05/20 00:47:22;;;;;;;22.02;12.40;;;;;;;;;;4953499;28;20071;-80
2023/05/20 00:49:49;;;;;;;22.05;12.50;;;;;;;;;;4969511;28;20524;-81
2023/05/20 00:52:17;;;;;;;21.33;11.95;;;;;;;;;;4974970;28;20160;-80
2023/05/20 00:54:47;;;;;;;24.60;12.13;;;;;;;;;;4967795;28;20043;-79
2023/05/20 00:57:14;;;;;;;26.35;12.55;;;;;;;;;;4969062;28;20094;-80
2023/05/20 00:59:41;;;;;;;22.80;12.35;;;;;;;;;;4938260;28;20133;-79
2023/05/20 01:02:10;;;;;;;26.27;12.80;;;;;;;;;;4967999;28;20448;-78
2023/05/20 01:04:37;;;;;;;24.67;13.05;;;;;;;;;;4963966;28;20050;-79
2023/05/20 01:07:05;;;;;;;25.42;13.73;;;;;;;;;;4987234;28;20054;-81
2023/05/20 01:09:32;;;;;;;27.15;14.38;;;;;;;;;;4959715;28;20587;-81
2023/05/20 01:12:02;;;;;;;25.85;13.82;;;;;;;;;;4959417;28;20037;-80
2023/05/20 01:14:31;;;;;;;24.52;13.60;;;;;;;;;;4973910;28;20043;-81
2023/05/20 01:17:00;;;;;;;24.65;13.10;;;;;;;;;;4958867;28;20074;-80
2023/05/20 01:19:45;;;;;;;27.02;14.40;;;;;;;;;;4955469;28;20043;-81
2023/05/20 01:22:12;;;;;;;28.38;14.15;;;;;;;;;;4956052;28;20468;-82
2023/05/20 01:24:47;;;;;;;27.45;14.50;;;;;;;;;;4972141;28;20039;-81
2023/05/20 01:27:14;;;;;;;27.10;14.95;;;;;;;;;;4972978;28;20059;-81
2023/05/20 01:29:41;;;;;;;32.97;15.25;;;;;;;;;;4956788;28;20040;-81
2023/05/20 01:32:28;;;;;;;23.30;13.90;;;;;;;;;;4971226;28;20377;-79
2023/05/20 01:34:55;;;;;;;31.02;14.98;;;;;;;;;;4945369;28;20039;-81
2023/05/20 01:37:24;;;;;;;27.35;14.90;;;;;;;;;;4950830;28;20047;-81
2023/05/20 01:39:51;;;;;;;28.10;15.65;;;;;;;;;;4968155;28;20089;-82
2023/05/20 01:42:18;;;;;;;28.88;15.07;;;;;;;;;;4954514;28;20058;-80
2023/05/20 01:44:45;;;;;;;31.48;16.00;;;;;;;;;;4954457;28;20058;-81
2023/05/20 01:47:12;;;;;;;26.83;15.05;;;;;;;;;;4956336;28;20067;-80
2023/05/20 01:49:40;;;;;;;30.73;16.45;;;;;;;;;;4971869;28;20114;-82
2023/05/20 01:52:07;;;;;;;33.17;16.63;;;;;;;;;;4946830;28;20538;-80
2023/05/20 01:54:35;;;;;;;30.40;16.98;;;;;;;;;;4951637;28;20043;-80
2023/05/20 01:57:02;;;;;;;30.70;17.30;;;;;;;;;;4935009;28;20058;-81
2023/05/20 01:59:29;;;;;;;30.98;16.23;;;;;;;;;;4935751;28;20039;-80
2023/05/20 02:01:56;;;;;;;36.38;18.38;;;;;;;;;;4966877;28;20047;-80
2023/05/20 02:04:22;;;;;;;37.53;17.77;;;;;;;;;;4968639;28;20039;-80
2023/05/20 02:06:49;;;;;;;38.40;18.10;;;;;;;;;;4968625;28;20118;-80
2023/05/20 02:09:17;;;;;;;31.17;18.00;;;;;;;;;;4953063;28;20428;-80
2023/05/20 02:11:43;;;;;;;34.88;17.92;;;;;;;;;;4956301;28;20047;-80
2023/05/20 02:14:10;;;;;;;34.03;17.95;;;;;;;;;;4957767;28;20500;-81
2023/05/20 02:16:36;;;;;;;33.75;18.50;;;;;;;;;;4968248;28;20047;-80
2023/05/20 02:19:03;;;;;;;33.17;18.80;;;;;;;;;;4952647;28;20075;-81
2023/05/20 02:21:30;;;;;;;36.97;19.08;;;;;;;;;;4967955;28;20043;-80
2023/05/20 02:23:57;;;;;;;38.35;21.10;;;;;;;;;;4952097;28;20066;-79
2023/05/20 02:26:25;;;;;;;38.83;20.35;;;;;;;;;;4969327;28;20047;-81
2023/05/20 02:28:51;;;;;;;37.13;20.00;;;;;;;;;;4968670;28;20110;-81
2023/05/20 02:31:20;;;;;;;40.38;21.63;;;;;;;;;;4953228;28;20049;-81
2023/05/20 02:33:46;;;;;;;39.50;22.48;;;;;;;;;;4970091;28;20047;-79
2023/05/20 02:36:14;;;;;;;37.28;21.27;;;;;;;;;;4958736;28;20051;-79
2023/05/20 02:38:40;;;;;;;42.33;23.90;;;;;;;;;;4973223;28;20059;-79
2023/05/20 02:41:12;;;;;;;44.13;23.15;;;;;;;;;;4967509;28;20044;-80
2023/05/20 02:43:40;;;;;;;47.70;23.92;;;;;;;;;;4967529;28;20078;-80
2023/05/20 02:46:07;;;;;;;45.13;24.00;;;;;;;;;;4954126;28;20088;-79
2023/05/20 02:48:34;;;;;;;43.15;23.85;;;;;;;;;;4975838;28;20476;-81
2023/05/20 02:51:01;;;;;;;47.88;25.73;;;;;;;;;;4951002;28;20047;-80
2023/05/20 02:53:27;;;;;;;59.90;26.08;;;;;;;;;;4968053;28;20066;-79
2023/05/20 02:55:54;;;;;;;47.75;25.23;;;;;;;;;;4951811;28;20054;-79
2023/05/20 02:58:25;;;;;;;53.90;26.95;;;;;;;;;;4967937;28;20058;-80
2023/05/20 03:00:52;;;;;;;48.17;25.85;;;;;;;;;;4945191;28;20551;-81
2023/05/20 03:03:19;;;;;;;48.50;26.50;;;;;;;;;;4951404;28;20729;-81
2023/05/20 03:05:45;;;;;;;50.13;25.17;;;;;;;;;;4968207;28;20058;-81
2023/05/20 03:08:12;;;;;;;47.55;25.73;;;;;;;;;;4968270;28;20507;-81
2023/05/20 03:10:38;;;;;;;46.65;25.27;;;;;;;;;;4952532;28;20070;-82
2023/05/20 03:13:07;;;;;;;46.92;25.20;;;;;;;;;;4971812;28;20134;-79
2023/05/20 03:15:39;;;;;;;49.08;25.27;;;;;;;;;;4956435;28;20122;-82
2023/05/20 03:18:07;;;;;;;48.28;25.77;;;;;;;;;;4974138;28;20051;-81
2023/05/20 03:20:37;;;;;;;53.35;26.83;;;;;;;;;;4959102;28;20106;-81
2023/05/20 03:23:06;;;;;;;50.60;25.38;;;;;;;;;;4973290;28;20411;-80
2023/05/20 03:25:35;;;;;;;47.50;25.33;;;;;;;;;;4940251;28;20050;-80
2023/05/20 03:28:02;;;;;;;46.22;24.92;;;;;;;;;;4954404;28;20054;-81
2023/05/20 03:30:30;;;;;;;49.65;25.33;;;;;;;;;;4970200;28;20054;-78
2023/05/20 03:32:57;;;;;;;50.20;25.27;;;;;;;;;;4971156;28;20066;-81
2023/05/20 03:35:26;;;;;;;50.08;26.67;;;;;;;;;;4971242;28;20043;-81
2023/05/20 03:38:04;;;;;;;48.03;25.55;;;;;;;;;;4970644;28;20047;-82
2023/05/20 03:40:33;;;;;;;45.67;25.40;;;;;;;;;;4953926;28;20054;-82
2023/05/20 03:42:59;;;;;;;52.25;26.83;;;;;;;;;;4970258;28;20134;-82
2023/05/20 03:45:26;;;;;;;48.85;26.38;;;;;;;;;;4954984;28;20079;-81
2023/05/20 03:48:03;;;;;;;51.53;26.52;;;;;;;;;;4969709;28;20046;-81
2023/05/20 03:50:32;;;;;;;47.03;25.10;;;;;;;;;;4954236;28;20468;-81
2023/05/20 03:52:59;;;;;;;49.03;26.00;;;;;;;;;;4954143;28;20047;-81
2023/05/20 03:55:31;;;;;;;47.15;25.23;;;;;;;;;;4958493;28;20039;-81
2023/05/20 03:58:00;;;;;;;50.58;26.08;;;;;;;;;;4973417;28;20126;-81
2023/05/20 04:00:26;;;;;;;46.05;24.10;;;;;;;;;;4961101;28;20088;-82
2023/05/20 04:02:54;;;;;;;45.38;25.15;;;;;;;;;;4955237;28;20174;-81
2023/05/20 04:05:22;;;;;;;49.97;26.00;;;;;;;;;;4953897;28;20047;-82
2023/05/20 04:07:49;;;;;;;45.88;25.17;;;;;;;;;;4954084;28;20035;-81
2023/05/20 04:10:18;;;;;;;48.22;24.17;;;;;;;;;;4950814;28;20043;-81
2023/05/20 04:12:45;;;;;;;47.78;24.30;;;;;;;;;;4935004;28;20043;-80
2023/05/20 04:15:13;;;;;;;47.03;25.48;;;;;;;;;;4951395;28;20051;-82
2023/05/20 04:17:49;;;;;;;47.92;25.73;;;;;;;;;;4951372;28;20046;-80
2023/05/20 04:20:18;;;;;;;47.75;25.08;;;;;;;;;;4967695;28;20043;-81
2023/05/20 04:22:47;;;;;;;45.67;24.05;;;;;;;;;;4967427;28;20667;-81
2023/05/20 04:25:13;;;;;;;46.67;24.58;;;;;;;;;;4967468;28;20624;-80
2023/05/20 04:27:40;;;;;;;46.72;24.55;;;;;;;;;;4968551;28;20043;-81
2023/05/20 04:30:07;;;;;;;38.03;22.58;;;;;;;;;;4967055;28;20497;-81
2023/05/20 04:32:37;;;;;;;43.78;23.73;;;;;;;;;;4968318;28;20063;-80
2023/05/20 04:35:10;;;;;;;44.85;23.50;;;;;;;;;;4960753;28;20069;-81
2023/05/20 04:37:39;;;;;;;42.40;23.60;;;;;;;;;;4960160;28;20527;-80
2023/05/20 04:40:06;;;;;;;46.42;24.38;;;;;;;;;;4964890;28;20084;-81
2023/05/20 04:42:32;;;;;;;43.25;24.15;;;;;;;;;;4955400;28;20047;-81
2023/05/20 04:45:04;;;;;;;45.92;24.55;;;;;;;;;;4958426;28;20063;-81
2023/05/20 04:47:37;;;;;;;44.65;23.92;;;;;;;;;;4966046;28;20059;-81
2023/05/20 04:50:11;;;;;;;43.40;23.77;;;;;;;;;;4948035;28;20047;-80
2023/05/20 04:52:41;;;;;;;45.40;24.90;;;;;;;;;;4933093;28;20131;-81
2023/05/20 04:55:09;;;;;;;42.55;24.23;;;;;;;;;;4953106;28;20111;-81
2023/05/20 04:57:38;;;;;;;46.15;24.73;;;;;;;;;;4964604;28;20110;-80
2023/05/20 05:00:06;;;;;;;42.25;23.55;;;;;;;;;;4932810;28;20115;-80
2023/05/20 05:02:33;;;;;;;46.63;25.50;;;;;;;;;;4966134;28;20047;-81
2023/05/20 05:05:01;;;;;;;50.00;26.05;;;;;;;;;;4969472;28;20043;-81
2023/05/20 05:07:28;;;;;;;50.53;26.55;;;;;;;;;;4967906;28;20061;-82
2023/05/20 05:09:54;;;;;;;49.17;26.48;;;;;;;;;;4968384;28;20049;-81
2023/05/20 05:12:22;;;;;;;50.40;27.20;;;;;;;;;;4960037;28;20054;-81
2023/05/20 05:14:49;;;;;;;50.97;27.02;;;;;;;;;;4985582;28;20050;-81
2023/05/20 05:17:16;;;;;;;49.85;27.65;;;;;;;;;;4971013;28;20055;-81
2023/05/20 05:19:43;;;;;;;51.30;27.63;;;;;;;;;;4969698;28;20097;-80
2023/05/20 05:22:09;;;;;;;49.03;26.55;;;;;;;;;;4953491;28;20047;-81
2023/05/20 05:24:37;;;;;;;49.08;27.27;;;;;;;;;;4986411;28;20047;-79
2023/05/20 05:27:04;;;;;;;46.63;26.05;;;;;;;;;;4972433;28;20058;-80
2023/05/20 05:29:31;;;;;;;55.90;28.00;;;;;;;;;;4961443;28;20062;-83
2023/05/20 05:31:57;;;;;;;44.95;25.88;;;;;;;;;;4937247;28;20065;-81
2023/05/20 05:34:24;;;;;;;46.55;24.90;;;;;;;;;;4950765;28;20457;-80
2023/05/20 05:36:50;;;;;;;45.13;25.08;;;;;;;;;;4932747;28;20057;-80
2023/05/20 05:39:17;;;;;;;48.13;25.35;;;;;;;;;;4945963;28;20471;-80
2023/05/20 05:41:43;;;;;;;46.83;24.98;;;;;;;;;;4967017;28;20535;-78
2023/05/20 05:44:11;;;;;;;41.78;24.58;;;;;;;;;;4938042;28;20043;-82
2023/05/20 05:46:37;;;;;;;44.05;23.27;;;;;;;;;;4974565;28;20043;-83
2023/05/20 05:49:04;;;;;;;46.08;24.00;;;;;;;;;;4952716;28;20051;-81
2023/05/20 05:51:32;;;;;;;41.80;23.20;;;;;;;;;;4952438;28;20050;-84
2023/05/20 05:53:58;;;;;;;43.28;24.00;;;;;;;;;;4953056;28;20131;-84
2023/05/20 05:56:25;;;;;;;46.70;24.23;;;;;;;;;;4935750;28;20051;-82
2023/05/20 05:58:51;;;;;;;42.78;22.52;;;;;;;;;;4967202;28;20536;-82
2023/05/20 06:01:18;;;;;;;43.67;23.65;;;;;;;;;;4951941;28;20058;-83
2023/05/20 06:03:45;;;;;;;47.33;23.65;;;;;;;;;;4975494;28;20051;-83
2023/05/20 06:06:12;;;;;;;46.60;23.67;;;;;;;;;;4950607;28;20571;-82
2023/05/20 06:08:38;;;;;;;42.72;22.88;;;;;;;;;;4965932;28;20053;-81
2023/05/20 06:11:06;;;;;;;39.53;22.70;;;;;;;;;;4985076;28;20070;-81
2023/05/20 06:13:32;;;;;;;42.35;23.67;;;;;;;;;;4965006;28;20124;-82
2023/05/20 06:15:59;;;;;;;40.35;21.92;;;;;;;;;;4951178;28;20047;-82
2023/05/20 06:18:26;;;;;;;40.78;22.75;;;;;;;;;;4967959;28;20085;-81
2023/05/20 06:20:56;;;;;;;35.72;20.98;;;;;;;;;;4949831;28;20035;-82
2023/05/20 06:23:24;;;;;;;41.13;22.73;;;;;;;;;;4950605;28;20059;-80
2023/05/20 06:25:58;;;;;;;39.30;21.83;;;;;;;;;;4950250;28;20043;-82
2023/05/20 06:28:25;;;;;;;43.35;21.17;;;;;;;;;;4963351;28;20039;-83
2023/05/20 06:30:55;;;;;;;38.33;20.98;;;;;;;;;;4965424;28;20038;-80
2023/05/20 06:33:28;;;;;;;36.40;21.13;;;;;;;;;;4967541;28;20479;-80
2023/05/20 06:36:02;;;;;;;43.50;21.60;;;;;;;;;;4968330;28;20051;-79
2023/05/20 06:38:29;;;;;;;40.47;21.73;;;;;;;;;;4981899;28;20047;-81
2023/05/20 06:40:56;;;;;;;41.72;22.08;;;;;;;;;;4977721;28;20034;-80
2023/05/20 06:43:26;;;;;;;43.47;22.77;;;;;;;;;;4969624;28;20039;-82
2023/05/20 06:46:02;;;;;;;43.22;22.67;;;;;;;;;;4958559;28;20077;-82
2023/05/20 06:48:43;;;;;;;41.47;21.80;;;;;;;;;;4981225;28;20039;-81
2023/05/20 06:51:10;;;;;;;44.08;22.48;;;;;;;;;;4972140;28;20121;-80
2023/05/20 06:53:37;;;;;;;39.67;20.52;;;;;;;;;;4989818;28;20047;-82
2023/05/20 06:56:04;;;;;;;39.70;21.67;;;;;;;;;;4974164;28;20043;-80
2023/05/20 06:58:31;;;;;;;38.35;21.35;;;;;;;;;;4973229;28;20125;-79
2023/05/20 07:00:58;;;;;;;45.13;22.42;;;;;;;;;;4989671;28;20573;-81
2023/05/20 07:03:25;;;;;;;43.67;24.17;;;;;;;;;;4973326;28;20038;-82
2023/05/20 07:05:52;;;;;;;41.78;21.70;;;;;;;;;;4973677;28;20047;-81
2023/05/20 07:08:19;;;;;;;36.13;21.40;;;;;;;;;;4969707;28;20035;-82
2023/05/20 07:10:46;;;;;;;39.70;20.70;;;;;;;;;;4988911;28;20043;-83
2023/05/20 07:13:16;;;;;;;36.58;20.95;;;;;;;;;;4954181;28;20103;-82
2023/05/20 07:15:46;;;;;;;36.63;19.98;;;;;;;;;;4954079;28;20049;-82
2023/05/20 07:18:14;;;;;;;37.42;20.48;;;;;;;;;;4988856;28;20097;-80
2023/05/20 07:20:43;;;;;;;35.10;19.48;;;;;;;;;;4988603;28;20511;-82
2023/05/20 07:23:20;;;;;;;39.30;20.92;;;;;;;;;;4959862;28;20051;-82
2023/05/20 07:25:52;;;;;;;35.47;20.40;;;;;;;;;;4967859;28;20054;-82
2023/05/20 07:28:19;;;;;;;35.95;20.17;;;;;;;;;;4961298;28;20113;-81
2023/05/20 07:30:48;;;;;;;32.10;18.77;;;;;;;;;;4972793;28;20058;-80
2023/05/20 07:33:38;;;;;;;33.70;19.50;;;;;;;;;;4961599;28;20047;-80
2023/05/20 07:36:04;;;;;;;33.20;17.55;;;;;;;;;;4946432;28;20060;-82
2023/05/20 07:38:32;;;;;;;30.92;18.65;;;;;;;;;;4960023;28;20087;-82
2023/05/20 07:41:02;;;;;;;37.08;19.02;;;;;;;;;;4979284;28;20070;-82
2023/05/20 07:43:30;;;;;;;31.60;17.95;;;;;;;;;;4953701;28;20421;-83
2023/05/20 07:45:57;;;;;;;32.13;19.08;;;;;;;;;;4963007;28;20055;-84
2023/05/20 07:48:23;;;;;;;33.72;18.75;;;;;;;;;;4948710;28;20844;-82
2023/05/20 07:50:51;;;;;;;30.27;18.25;;;;;;;;;;4968102;28;20142;-81
2023/05/20 07:53:18;;;;;;;28.27;17.08;;;;;;;;;;4941583;28;20046;-83
2023/05/20 07:55:45;;;;;;;31.45;18.05;;;;;;;;;;4981991;28;20046;-82
2023/05/20 07:58:13;;;;;;;29.58;17.65;;;;;;;;;;4973178;28;20051;-83
2023/05/20 08:00:39;;;;;;;29.67;17.10;;;;;;;;;;4948500;28;20283;-82
2023/05/20 08:03:07;;;;;;;31.52;18.08;;;;;;;;;;4952117;28;20050;-85
2023/05/20 08:06:01;;;;;;;32.17;18.48;;;;;;;;;;4970977;28;20050;-82
2023/05/20 08:08:29;;;;;;;32.53;17.83;;;;;;;;;;4949170;28;20047;-82
2023/05/20 08:11:03;;;;;;;30.58;18.45;;;;;;;;;;4984829;28;20058;-84
2023/05/20 08:13:30;;;;;;;30.73;16.90;;;;;;;;;;4936886;28;20046;-82
2023/05/20 08:15:58;;;;;;;29.75;16.58;;;;;;;;;;4990468;28;20062;-82
2023/05/20 08:18:26;;;;;;;27.88;17.13;;;;;;;;;;4954477;28;20491;-82
2023/05/20 08:20:52;;;;;;;27.45;16.25;;;;;;;;;;4976561;28;20563;-83
2023/05/20 08:23:19;;;;;;;23.60;15.48;;;;;;;;;;4966874;28;20548;-84
2023/05/20 08:25:47;;;;;;;32.83;17.55;;;;;;;;;;4964626;28;20505;-82
2023/05/20 08:28:15;;;;;;;28.77;16.55;;;;;;;;;;4981277;28;20046;-84
2023/05/20 08:30:42;;;;;;;27.33;16.52;;;;;;;;;;4964218;28;20061;-83
2023/05/20 08:33:09;;;;;;;28.23;16.58;;;;;;;;;;4964719;28;20042;-84
2023/05/20 08:35:38;;;;;;;25.95;15.52;;;;;;;;;;4973070;28;20102;-76
2023/05/20 08:38:05;;;;;;;30.15;15.70;;;;;;;;;;4958220;28;20572;-76
2023/05/20 08:40:35;;;;;;;25.25;15.77;;;;;;;;;;4981350;28;20143;-76
2023/05/20 08:43:02;;;;;;;27.65;16.25;;;;;;;;;;4954344;28;20043;-76
2023/05/20 08:45:30;;;;;;;25.13;15.77;;;;;;;;;;4917238;28;20067;-82
2023/05/20 08:48:03;;;;;;;25.50;14.98;;;;;;;;;;4937640;28;20067;-82
2023/05/20 08:50:30;;;;;;;27.92;16.02;;;;;;;;;;4955255;28;20051;-80
2023/05/20 08:52:58;;;;;;;27.42;16.10;;;;;;;;;;4963481;28;20475;-77
2023/05/20 08:55:56;;;;;;;29.58;16.10;;;;;;;;;;4947926;28;20051;-81
2023/05/20 08:58:27;;;;;;;29.30;16.17;;;;;;;;;;4958250;28;20078;-79
2023/05/20 09:00:53;;;;;;;27.35;16.80;;;;;;;;;;4964073;28;20493;-81
2023/05/20 09:03:20;;;;;;;28.90;16.60;;;;;;;;;;4962437;28;20047;-80
2023/05/20 09:05:47;;;;;;;27.85;16.50;;;;;;;;;;4964003;28;20067;-82
2023/05/20 09:08:17;;;;;;;26.20;15.48;;;;;;;;;;4953406;28;20065;-79
2023/05/20 09:10:43;;;;;;;27.40;15.55;;;;;;;;;;4955865;28;20101;-86
2023/05/20 09:13:10;;;;;;;26.73;15.70;;;;;;;;;;4966811;28;20055;-82
2023/05/20 09:15:37;;;;;;;28.63;15.00;;;;;;;;;;4978297;28;20046;-82
2023/05/20 09:18:05;;;;;;;24.27;15.32;;;;;;;;;;4965325;28;20050;-82
2023/05/20 09:20:33;;;;;;;26.80;15.73;;;;;;;;;;4969414;28;20062;-81
2023/05/20 09:23:01;;;;;;;26.38;15.73;;;;;;;;;;4984560;28;20507;-81
2023/05/20 09:25:31;;;;;;;25.45;15.65;;;;;;;;;;4937307;29;20043;-83
2023/05/20 09:27:58;;;;;;;22.17;14.45;;;;;;;;;;4937555;28;20146;-85
2023/05/20 09:30:24;;;;;;;25.02;15.65;;;;;;;;;;4954686;28;20101;-83
2023/05/20 09:32:51;;;;;;;26.98;15.95;;;;;;;;;;4953027;28;20050;-81
2023/05/20 09:35:18;;;;;;;25.05;15.88;;;;;;;;;;4954689;28;20102;-84
2023/05/20 09:37:45;;;;;;;26.20;14.90;;;;;;;;;;4972605;28;20570;-83
2023/05/20 09:40:14;;;;;;;25.45;14.82;;;;;;;;;;4949962;28;20538;-85
2023/05/20 09:42:48;;;;;;;28.50;16.05;;;;;;;;;;4963325;28;20047;-82
2023/05/20 09:45:15;;;;;;;22.77;14.50;;;;;;;;;;4952648;28;20046;-83
2023/05/20 09:47:44;;;;;;;24.50;15.18;;;;;;;;;;4982544;28;20624;-83
2023/05/20 09:50:11;;;;;;;22.13;14.02;;;;;;;;;;4953597;28;20078;-80
2023/05/20 09:52:38;;;;;;;25.60;15.88;;;;;;;;;;4970435;28;20047;-82
2023/05/20 09:55:05;;;;;;;23.30;15.65;;;;;;;;;;4953345;28;20047;-82
2023/05/20 09:57:33;;;;;;;25.77;16.23;;;;;;;;;;4955587;28;20105;-84
2023/05/20 10:00:00;;;;;;;23.90;15.20;;;;;;;;;;4963938;28;20416;-83
2023/05/20 10:02:37;;;;;;;22.05;14.98;;;;;;;;;;4967907;28;20081;-85
2023/05/20 10:05:06;;;;;;;23.20;15.38;;;;;;;;;;4943545;28;20083;-83
2023/05/20 10:07:33;;;;;;;25.95;14.48;;;;;;;;;;4955037;28;20048;-83
2023/05/20 10:10:26;;;;;;;22.23;14.95;;;;;;;;;;4967481;28;20047;-83
2023/05/20 10:13:08;;;;;;;25.52;14.05;;;;;;;;;;4963133;28;20115;-85
2023/05/20 10:15:43;;;;;;;25.65;15.13;;;;;;;;;;4955236;28;20047;-83
2023/05/20 10:18:10;;;;;;;27.20;16.73;;;;;;;;;;4956297;28;20051;-84
2023/05/20 10:20:56;;;;;;;26.35;15.82;;;;;;;;;;4953526;28;20111;-85
2023/05/20 10:23:26;;;;;;;28.77;16.30;;;;;;;;;;4956226;28;20351;-84
2023/05/20 10:25:53;;;;;;;26.08;16.08;;;;;;;;;;4954347;28;20074;-82
2023/05/20 10:28:31;;;;;;;24.05;16.17;;;;;;;;;;4955106;28;20055;-82
2023/05/20 10:30:58;;;;;;;20.30;14.25;;;;;;;;;;4956771;28;20156;-83
2023/05/20 10:33:28;;;;;;;22.00;15.27;;;;;;;;;;4970479;28;20062;-85
2023/05/20 10:35:58;;;;;;;24.30;15.77;;;;;;;;;;4953756;28;20063;-82
2023/05/20 10:38:25;;;;;;;24.75;15.55;;;;;;;;;;4969949;28;20090;-81
2023/05/20 10:40:51;;;;;;;20.95;13.57;;;;;;;;;;4950115;28;20244;-86
2023/05/20 10:43:25;;;;;;;23.13;14.50;;;;;;;;;;4964034;28;20054;-80
2023/05/20 10:45:53;;;;;;;26.05;16.05;;;;;;;;;;4962795;28;20031;-80
2023/05/20 10:48:20;;;;;;;24.92;14.68;;;;;;;;;;4969782;28;20039;-81
2023/05/20 10:50:47;;;;;;;21.83;15.20;;;;;;;;;;4970705;28;20117;-82
2023/05/20 10:53:14;;;;;;;29.40;18.08;;;;;;;;;;4957779;28;20134;-81
2023/05/20 10:55:58;;;;;;;29.60;17.98;;;;;;;;;;4965297;28;20467;-80
2023/05/20 10:58:25;;;;;;;26.27;15.75;;;;;;;;;;4955823;28;20571;-83
2023/05/20 11:00:53;;;;;;;23.10;15.52;;;;;;;;;;4933295;28;20047;-83
2023/05/20 11:03:22;;;;;;;25.13;15.90;;;;;;;;;;4965521;28;20495;-82
2023/05/20 11:05:50;;;;;;;25.27;15.20;;;;;;;;;;4960164;28;20084;-83
2023/05/20 11:08:16;;;;;;;24.35;15.73;;;;;;;;;;4970437;28;20448;-83
2023/05/20 11:10:57;;;;;;;21.80;14.85;;;;;;;;;;4960721;28;20066;-84
2023/05/20 11:13:25;;;;;;;21.05;14.95;;;;;;;;;;4961096;28;20396;-83
2023/05/20 11:15:52;;;;;;;24.15;14.45;;;;;;;;;;4953698;28;20047;-84
2023/05/20 11:18:19;;;;;;;20.90;14.05;;;;;;;;;;4933505;28;20067;-81
2023/05/20 11:20:46;;;;;;;23.00;15.20;;;;;;;;;;4969172;28;20109;-84
2023/05/20 11:23:13;;;;;;;20.35;14.70;;;;;;;;;;4955085;28;20226;-84
2023/05/20 11:25:40;;;;;;;24.75;14.57;;;;;;;;;;4951331;28;20047;-83
2023/05/20 11:28:13;;;;;;;21.00;14.77;;;;;;;;;;4965446;28;20035;-85
2023/05/20 11:30:41;;;;;;;19.08;13.23;;;;;;;;;;4986068;28;20078;-84
2023/05/20 11:33:10;;;;;;;19.90;13.57;;;;;;;;;;4969759;28;20051;-85
2023/05/20 11:35:42;;;;;;;20.17;13.02;;;;;;;;;;4949947;28;20161;-83
2023/05/20 11:38:10;;;;;;;19.88;12.18;;;;;;;;;;4969958;28;20158;-84
2023/05/20 11:40:42;;;;;;;21.45;12.10;;;;;;;;;;4935871;28;20091;-85
2023/05/20 11:43:17;;;;;;;24.83;11.68;;;;;;;;;;4951044;28;20047;-84
2023/05/20 11:45:44;;;;;;;17.75;11.15;;;;;;;;;;4936050;28;20040;-83
2023/05/20 11:48:11;;;;;;;14.20;10.80;;;;;;;;;;4937316;28;20049;-86
2023/05/20 11:50:39;;;;;;;17.45;10.68;;;;;;;;;;4951339;28;20123;-84
2023/05/20 11:53:24;;;;;;;22.50;10.85;;;;;;;;;;4963612;28;20050;-83
2023/05/20 11:55:54;;;;;;;14.30;10.57;;;;;;;;;;4947343;28;20520;-82
2023/05/20 11:58:22;;;;;;;15.80;10.88;;;;;;;;;;4948142;28;20044;-82
2023/05/20 12:00:48;;;;;;;18.50;12.23;;;;;;;;;;4947606;28;20052;-82
2023/05/20 12:03:24;;;;;;;21.27;11.98;;;;;;;;;;4953076;28;20047;-84
2023/05/20 12:05:51;;;;;;;17.58;11.45;;;;;;;;;;4942695;28;20059;-87
2023/05/20 12:08:18;;;;;;;19.92;11.57;;;;;;;;;;4958777;28;20052;-83
2023/05/20 12:10:44;;;;;;;15.95;10.93;;;;;;;;;;4972106;28;20092;-77
2023/05/20 12:13:12;;;;;;;14.77;10.70;;;;;;;;;;4958114;28;20114;-83
2023/05/20 12:15:39;;;;;;;15.07;10.23;;;;;;;;;;4956201;28;20051;-84
2023/05/20 12:18:06;;;;;;;14.90;9.73;;;;;;;;;;4951055;28;20880;-81
2023/05/20 12:20:33;;;;;;;16.52;10.32;;;;;;;;;;4947395;28;20067;-78
2023/05/20 12:23:00;;;;;;;15.13;9.45;;;;;;;;;;4947899;28;20508;-77
2023/05/20 12:25:27;;;;;;;12.50;9.20;;;;;;;;;;4946642;28;20111;-76
2023/05/20 12:27:54;;;;;;;15.30;9.70;;;;;;;;;;4946017;28;20115;-82
2023/05/20 12:30:21;;;;;;;12.57;8.90;;;;;;;;;;4950413;28;20057;-79
2023/05/20 12:32:49;;;;;;;17.20;10.35;;;;;;;;;;4947719;28;20047;-84
2023/05/20 12:35:16;;;;;;;16.63;9.98;;;;;;;;;;4951373;28;20047;-79
2023/05/20 12:37:43;;;;;;;12.75;9.25;;;;;;;;;;4968528;28;20043;-80
2023/05/20 12:40:11;;;;;;;22.55;9.80;;;;;;;;;;4949444;28;20051;-82
2023/05/20 12:42:38;;;;;;;12.40;9.55;;;;;;;;;;4947505;28;20040;-82
2023/05/20 12:45:06;;;;;;;14.63;10.32;;;;;;;;;;4931504;28;20082;-80
2023/05/20 12:47:33;;;;;;;15.68;11.07;;;;;;;;;;4931825;28;20095;-79
2023/05/20 12:50:00;;;;;;;12.95;9.30;;;;;;;;;;4950258;28;20039;-81
2023/05/20 12:52:29;;;;;;;15.85;10.18;;;;;;;;;;4950816;28;20043;-78
2023/05/20 12:54:56;;;;;;;12.63;9.80;;;;;;;;;;4966161;28;20049;-81
2023/05/20 12:57:23;;;;;;;15.15;10.38;;;;;;;;;;4949839;28;20046;-83
2023/05/20 12:59:50;;;;;;;17.70;10.98;;;;;;;;;;4960522;28;20451;-79
2023/05/20 13:02:16;;;;;;;17.00;10.73;;;;;;;;;;4950041;28;20051;-78
2023/05/20 13:04:43;;;;;;;18.33;11.70;;;;;;;;;;4966598;28;20448;-79
2023/05/20 13:07:09;;;;;;;19.60;10.75;;;;;;;;;;4977306;28;20085;-82
2023/05/20 13:09:36;;;;;;;19.45;11.73;;;;;;;;;;4957064;28;20467;-84
2023/05/20 13:12:03;;;;;;;18.85;11.10;;;;;;;;;;4968702;28;20051;-81
2023/05/20 13:14:30;;;;;;;18.90;11.80;;;;;;;;;;4967648;28;20130;-81
2023/05/20 13:16:57;;;;;;;18.95;11.52;;;;;;;;;;4936075;28;20055;-83
2023/05/20 13:19:24;;;;;;;23.40;12.25;;;;;;;;;;4955999;28;20124;-81
2023/05/20 13:21:53;;;;;;;21.17;12.10;;;;;;;;;;4951068;28;20043;-81
2023/05/20 13:24:20;;;;;;;17.88;11.82;;;;;;;;;;4950603;28;20039;-82
2023/05/20 13:26:46;;;;;;;15.57;11.07;;;;;;;;;;4949881;28;20047;-81
2023/05/20 13:29:13;;;;;;;19.23;11.60;;;;;;;;;;4950594;28;20047;-80
2023/05/20 13:31:42;;;;;;;21.38;10.77;;;;;;;;;;4964857;28;20043;-82
2023/05/20 13:34:09;;;;;;;15.10;11.02;;;;;;;;;;4974768;28;20047;-82
2023/05/20 13:36:35;;;;;;;15.60;11.15;;;;;;;;;;4965763;28;20051;-82
2023/05/20 13:39:02;;;;;;;15.80;10.48;;;;;;;;;;4950959;28;20393;-81
2023/05/20 13:41:29;;;;;;;16.50;10.18;;;;;;;;;;4949063;28;20047;-82
2023/05/20 13:43:56;;;;;;;12.63;9.60;;;;;;;;;;4950927;28;20054;-82
2023/05/20 13:46:22;;;;;;;16.65;10.68;;;;;;;;;;4966387;28;20146;-80
2023/05/20 13:48:49;;;;;;;18.10;10.00;;;;;;;;;;4949103;28;20043;-81
2023/05/20 13:51:17;;;;;;;14.43;9.75;;;;;;;;;;4947724;28;20074;-79
2023/05/20 13:53:43;;;;;;;14.95;10.48;;;;;;;;;;4948918;28;20307;-82
2023/05/20 13:56:10;;;;;;;19.15;12.18;;;;;;;;;;4964076;28;20457;-81
2023/05/20 13:58:37;;;;;;;15.43;11.68;;;;;;;;;;4950853;28;20512;-82
2023/05/20 14:01:04;;;;;;;14.48;10.48;;;;;;;;;;4948664;28;20900;-83
2023/05/20 14:03:34;;;;;;;14.82;10.45;;;;;;;;;;4949257;28;20043;-85
2023/05/20 14:06:01;;;;;;;16.20;11.27;;;;;;;;;;4954824;28;20385;-82
2023/05/20 14:08:28;;;;;;;19.60;10.98;;;;;;;;;;4965575;28;20039;-83
2023/05/20 14:10:54;;;;;;;16.70;10.85;;;;;;;;;;4956118;28;20051;-84
2023/05/20 14:13:21;;;;;;;15.82;10.20;;;;;;;;;;4948313;28;20046;-83
2023/05/20 14:15:53;;;;;;;14.57;10.30;;;;;;;;;;4949378;28;20050;-82
2023/05/20 14:18:20;;;;;;;12.05;9.32;;;;;;;;;;4951283;28;20165;-83
2023/05/20 14:20:47;;;;;;;14.43;10.73;;;;;;;;;;4956363;28;20101;-81
2023/05/20 14:23:13;;;;;;;16.27;10.80;;;;;;;;;;4971478;28;20047;-80
2023/05/20 14:25:40;;;;;;;18.83;11.48;;;;;;;;;;4955561;28;20531;-82